createdAt,value
2022-08-25T00:00:44.687Z,5.33
2022-08-25T00:03:47.468Z,4.60
2022-08-25T00:06:50.837Z,5.10
2022-08-25T00:09:52.457Z,5.30
2022-08-25T00:12:54.559Z,4.87
2022-08-25T00:15:56.443Z,5.10
2022-08-25T00:19:01.414Z,4.93
2022-08-25T00:22:06.671Z,4.90
2022-08-25T00:25:09.729Z,4.80
2022-08-25T00:28:11.664Z,5.40
2022-08-25T00:31:16.314Z,5.10
2022-08-25T00:34:22.609Z,5.60
2022-08-25T00:37:24.284Z,4.80
2022-08-25T00:40:26.825Z,4.67
2022-08-25T00:43:32.628Z,4.67
2022-08-25T00:46:41.085Z,4.97
2022-08-25T00:49:47.732Z,5.03
2022-08-25T00:52:54.354Z,5.53
2022-08-25T00:55:56.119Z,5.20
2022-08-25T00:58:59.795Z,4.90
2022-08-25T01:02:02.467Z,4.57
2022-08-25T01:05:05.000Z,4.60
2022-08-25T01:08:08.328Z,5.10
2022-08-25T01:11:13.092Z,4.70
2022-08-25T01:14:17.978Z,4.87
2022-08-25T01:17:21.800Z,4.90
2022-08-25T01:20:27.962Z,4.50
2022-08-25T01:23:32.587Z,5.00
2022-08-25T01:26:35.804Z,4.50
2022-08-25T01:29:38.680Z,5.10
2022-08-25T01:32:40.400Z,5.43
2022-08-25T01:35:42.101Z,5.20
2022-08-25T01:38:43.731Z,5.07
2022-08-25T01:42:12.379Z,5.07
2022-08-25T01:45:14.967Z,4.67
2022-08-25T01:48:18.279Z,5.07
2022-08-25T01:51:23.523Z,5.00
2022-08-25T01:54:25.189Z,5.17
2022-08-25T01:57:30.080Z,4.87
2022-08-25T02:00:31.779Z,5.63
2022-08-25T02:03:38.044Z,5.10
2022-08-25T02:06:42.783Z,5.03
2022-08-25T02:09:44.629Z,5.80
2022-08-25T02:12:46.284Z,5.60
2022-08-25T02:15:51.709Z,5.47
2022-08-25T02:18:53.733Z,5.30
2022-08-25T02:21:55.689Z,5.50
2022-08-25T02:24:57.293Z,5.47
2022-08-25T02:27:59.038Z,5.50
2022-08-25T02:31:01.735Z,5.83
2022-08-25T02:34:04.647Z,5.23
2022-08-25T02:37:06.263Z,5.63
2022-08-25T02:40:08.769Z,5.30
2022-08-25T02:43:10.568Z,5.30
2022-08-25T02:46:13.030Z,5.40
2022-08-25T02:49:14.696Z,5.60
2022-08-25T02:52:17.230Z,6.70
2022-08-25T02:55:19.456Z,5.80
2022-08-25T02:58:21.768Z,5.80
2022-08-25T03:01:28.425Z,5.90
2022-08-25T03:04:31.878Z,5.60
2022-08-25T03:07:35.460Z,6.30
2022-08-25T03:10:37.231Z,6.37
2022-08-25T03:13:39.686Z,6.37
2022-08-25T03:16:42.803Z,6.20
2022-08-25T03:19:48.020Z,5.77
2022-08-25T03:22:49.953Z,5.33
2022-08-25T03:26:12.033Z,5.57
2022-08-25T03:29:13.838Z,6.20
2022-08-25T03:32:15.427Z,5.80
2022-08-25T03:35:18.114Z,6.17
2022-08-25T03:38:19.716Z,6.03
2022-08-25T03:41:29.176Z,6.50
2022-08-25T03:44:30.936Z,6.77
2022-08-25T03:47:32.523Z,5.67
2022-08-25T03:50:34.720Z,6.40
2022-08-25T03:53:36.359Z,5.93
2022-08-25T03:56:38.274Z,6.10
2022-08-25T03:59:40.335Z,5.93
2022-08-25T04:02:42.677Z,5.87
2022-08-25T04:05:44.335Z,5.70
2022-08-25T04:08:47.184Z,5.67
2022-08-25T04:11:51.920Z,6.00
2022-08-25T04:14:55.154Z,5.80
2022-08-25T04:17:58.705Z,6.37
2022-08-25T04:21:06.163Z,6.30
2022-08-25T04:24:10.254Z,6.20
2022-08-25T04:27:11.853Z,6.67
2022-08-25T04:30:14.029Z,6.70
2022-08-25T04:33:15.622Z,6.87
2022-08-25T04:36:18.822Z,6.53
2022-08-25T04:39:21.380Z,5.87
2022-08-25T04:42:23.046Z,6.60
2022-08-25T04:45:24.780Z,7.20
2022-08-25T04:48:26.639Z,7.60
2022-08-25T04:51:37.685Z,6.80
2022-08-25T04:54:39.404Z,7.13
2022-08-25T04:57:41.110Z,7.33
2022-08-25T05:00:43.896Z,6.80
2022-08-25T05:03:54.222Z,6.83
2022-08-25T05:06:56.940Z,7.20
2022-08-25T05:09:58.799Z,7.10
2022-08-25T05:13:00.618Z,7.00
2022-08-25T05:16:03.198Z,7.00
2022-08-25T05:19:05.117Z,7.60
2022-08-25T05:22:06.913Z,6.80
2022-08-25T05:25:08.764Z,7.63
2022-08-25T05:28:10.657Z,7.90
2022-08-25T05:31:14.264Z,7.40
2022-08-25T05:34:17.385Z,7.23
2022-08-25T05:37:18.977Z,8.00
2022-08-25T05:40:21.669Z,7.67
2022-08-25T05:43:23.426Z,7.57
2022-08-25T05:46:26.010Z,7.87
2022-08-25T05:49:30.684Z,8.40
2022-08-25T05:52:32.879Z,9.00
2022-08-25T05:55:34.514Z,8.30
2022-08-25T05:58:37.515Z,8.13
2022-08-25T06:01:57.657Z,8.13
2022-08-25T06:04:59.252Z,8.07
2022-08-25T06:08:00.915Z,8.50
2022-08-25T06:11:02.548Z,8.00
2022-08-25T06:14:04.679Z,8.80
2022-08-25T06:17:06.461Z,9.13
2022-08-25T06:20:11.230Z,8.30
2022-08-25T06:23:13.234Z,8.37
2022-08-25T06:26:19.084Z,9.07
2022-08-25T06:29:23.213Z,8.30
2022-08-25T06:32:24.864Z,8.60
2022-08-25T06:35:26.495Z,8.60
2022-08-25T06:38:28.324Z,9.10
2022-08-25T06:41:36.546Z,8.43
2022-08-25T06:44:38.764Z,9.13
2022-08-25T06:47:40.381Z,9.10
2022-08-25T06:50:42.950Z,9.10
2022-08-25T06:53:48.895Z,8.87
2022-08-25T06:56:51.087Z,9.13
2022-08-25T06:59:53.368Z,9.47
2022-08-25T07:02:55.291Z,9.70
2022-08-25T07:05:56.976Z,9.60
2022-08-25T07:08:58.845Z,10.73
2022-08-25T07:12:02.422Z,8.80
2022-08-25T07:15:19.562Z,9.77
2022-08-25T07:18:22.493Z,9.63
2022-08-25T07:21:27.883Z,10.23
2022-08-25T07:24:33.050Z,10.50
2022-08-25T07:27:34.849Z,10.17
2022-08-25T07:30:36.479Z,8.87
2022-08-25T07:33:59.298Z,9.60
2022-08-25T07:37:04.360Z,10.40
2022-08-25T07:40:07.971Z,10.20
2022-08-25T07:43:10.258Z,9.70
2022-08-25T07:46:11.975Z,9.80
2022-08-25T07:49:16.679Z,10.10
2022-08-25T07:52:19.754Z,9.40
2022-08-25T07:55:21.456Z,9.30
2022-08-25T07:58:23.099Z,9.20
2022-08-25T08:01:25.616Z,9.90
2022-08-25T08:04:27.371Z,9.20
2022-08-25T08:07:43.272Z,9.20
2022-08-25T08:11:03.267Z,9.83
2022-08-25T08:14:08.290Z,9.80
2022-08-25T08:17:11.156Z,10.53
2022-08-25T08:20:13.847Z,9.20
2022-08-25T08:23:18.561Z,10.00
2022-08-25T08:26:20.628Z,9.03
2022-08-25T08:29:23.113Z,8.70
2022-08-25T08:32:31.412Z,9.07
2022-08-25T08:35:42.255Z,9.10
2022-08-25T08:38:44.672Z,9.40
2022-08-25T08:42:18.346Z,9.17
2022-08-25T08:45:40.643Z,7.83
2022-08-25T08:49:05.503Z,9.10
2022-08-25T08:52:09.313Z,8.43
2022-08-25T08:55:26.711Z,9.13
2022-08-25T08:58:37.015Z,9.07
2022-08-25T09:02:00.493Z,9.07
2022-08-25T09:05:08.624Z,8.87
2022-08-25T09:08:13.387Z,8.50
2022-08-25T09:11:45.693Z,9.30
2022-08-25T09:15:02.412Z,8.97
2022-08-25T09:18:39.049Z,8.50
2022-08-25T09:22:35.603Z,8.60
2022-08-25T09:25:54.059Z,8.20
2022-08-25T09:29:25.461Z,7.70
2022-08-25T09:32:31.724Z,7.90
2022-08-25T09:35:36.973Z,8.73
2022-08-25T09:38:39.983Z,8.70
2022-08-25T09:41:51.395Z,8.60
2022-08-25T09:44:53.298Z,8.50
2022-08-25T09:47:54.906Z,8.90
2022-08-25T09:51:09.973Z,8.77
2022-08-25T09:54:15.178Z,9.30
2022-08-25T09:57:43.078Z,9.10
2022-08-25T10:00:44.828Z,8.67
2022-08-25T10:04:18.900Z,8.37
2022-08-25T10:07:39.272Z,7.43
2022-08-25T10:10:45.844Z,8.37
2022-08-25T10:13:53.342Z,8.43
2022-08-25T10:17:27.668Z,8.70
2022-08-25T10:20:35.216Z,9.10
2022-08-25T10:23:55.751Z,9.07
2022-08-25T10:27:09.451Z,8.77
2022-08-25T10:30:13.942Z,9.13
2022-08-25T10:33:40.739Z,7.70
2022-08-25T10:36:56.741Z,8.00
2022-08-25T10:40:37.261Z,8.10
2022-08-25T10:43:53.156Z,7.80
2022-08-25T10:47:22.413Z,8.90
2022-08-25T10:50:45.288Z,7.50
2022-08-25T10:54:04.153Z,7.80
2022-08-25T10:57:30.716Z,7.20
2022-08-25T11:00:47.700Z,6.70
2022-08-25T11:03:59.291Z,7.40
2022-08-25T11:07:08.264Z,7.90
2022-08-25T11:10:24.748Z,7.30
2022-08-25T11:13:38.939Z,8.03
2022-08-25T11:16:48.422Z,7.50
2022-08-25T11:19:55.320Z,7.75
2022-08-25T11:23:28.515Z,7.13
2022-08-25T11:26:37.469Z,7.50
2022-08-25T11:29:43.812Z,8.30
2022-08-25T11:32:51.932Z,7.10
2022-08-25T11:35:59.170Z,7.13
2022-08-25T11:39:22.034Z,7.20
2022-08-25T11:42:32.552Z,7.68
2022-08-25T11:46:13.269Z,7.30
2022-08-25T11:49:49.844Z,6.97
2022-08-25T11:52:55.909Z,7.40
2022-08-25T11:56:02.756Z,7.78
2022-08-25T11:59:05.293Z,7.60
2022-08-25T12:02:06.963Z,7.90
2022-08-25T12:05:34.342Z,7.60
2022-08-25T12:09:00.977Z,7.32
2022-08-25T12:12:41.156Z,6.40
2022-08-25T12:15:43.092Z,6.90
2022-08-25T12:18:46.358Z,7.07
2022-08-25T12:21:48.292Z,7.23
2022-08-25T12:25:03.233Z,7.68
2022-08-25T12:28:55.156Z,7.50
2022-08-25T12:31:57.292Z,6.70
2022-08-25T12:35:24.892Z,7.20
2022-08-25T12:38:52.441Z,7.00
2022-08-25T12:41:59.687Z,7.03
2022-08-25T12:45:20.110Z,7.05
2022-08-25T12:48:27.540Z,7.35
2022-08-25T12:51:48.547Z,7.38
2022-08-25T12:54:59.393Z,6.80
2022-08-25T12:58:04.394Z,7.38
2022-08-25T13:01:33.136Z,7.15
2022-08-25T13:05:05.686Z,7.80
2022-08-25T13:08:39.561Z,7.10
2022-08-25T13:12:16.807Z,7.32
2022-08-25T13:15:32.718Z,6.90
2022-08-25T13:18:39.874Z,7.00
2022-08-25T13:21:43.195Z,6.35
2022-08-25T13:24:50.776Z,6.60
2022-08-25T13:27:57.052Z,6.80
2022-08-25T13:31:05.226Z,6.38
2022-08-25T13:34:19.217Z,6.88
2022-08-25T13:37:32.320Z,7.18
2022-08-25T13:40:36.638Z,7.05
2022-08-25T13:43:39.777Z,6.60
2022-08-25T13:46:44.246Z,6.93
2022-08-25T13:49:47.710Z,7.10
2022-08-25T13:52:57.403Z,6.53
2022-08-25T13:56:03.031Z,6.60
2022-08-25T13:59:18.606Z,6.47
2022-08-25T14:03:17.812Z,6.57
2022-08-25T14:06:26.137Z,6.75
2022-08-25T14:09:47.484Z,6.65
2022-08-25T14:13:17.372Z,7.28
2022-08-25T14:16:25.481Z,7.32
2022-08-25T14:19:28.683Z,7.75
2022-08-25T14:22:30.701Z,7.53
2022-08-25T14:25:34.832Z,6.40
2022-08-25T14:28:38.291Z,6.85
2022-08-25T14:31:44.832Z,7.05
2022-08-25T14:34:46.849Z,6.53
2022-08-25T14:37:49.235Z,6.82
2022-08-25T14:40:51.294Z,7.28
2022-08-25T14:43:53.548Z,7.65
2022-08-25T14:46:56.936Z,7.13
2022-08-25T14:50:01.257Z,6.60
2022-08-25T14:53:04.294Z,7.25
2022-08-25T14:56:16.368Z,6.95
2022-08-25T14:59:19.867Z,6.80
2022-08-25T15:02:22.975Z,6.60
2022-08-25T15:05:32.155Z,6.97
2022-08-25T15:08:52.473Z,7.00
2022-08-25T15:11:56.119Z,7.82
2022-08-25T15:14:58.167Z,6.18
2022-08-25T15:18:01.305Z,5.82
2022-08-25T15:21:03.041Z,6.30
2022-08-25T15:24:05.642Z,6.32
2022-08-25T15:27:10.152Z,6.00
2022-08-25T15:30:13.020Z,6.25
2022-08-25T15:33:14.768Z,7.43
2022-08-25T15:36:20.625Z,6.03
2022-08-25T15:39:22.643Z,7.03
2022-08-25T15:42:25.411Z,7.20
2022-08-25T15:45:28.139Z,6.60
2022-08-25T15:48:29.764Z,6.97
2022-08-25T15:51:31.394Z,7.05
2022-08-25T15:54:33.144Z,7.65
2022-08-25T15:57:35.185Z,6.90
2022-08-25T16:00:41.350Z,6.45
2022-08-25T16:03:43.578Z,6.93
2022-08-25T16:06:45.823Z,6.50
2022-08-25T16:09:49.394Z,6.43
2022-08-25T16:12:52.804Z,6.70
2022-08-25T16:15:55.039Z,6.78
2022-08-25T16:18:57.268Z,5.90
2022-08-25T16:22:00.470Z,7.32
2022-08-25T16:25:02.472Z,6.32
2022-08-25T16:28:04.215Z,9.57
2022-08-25T16:31:08.857Z,6.80
2022-08-25T16:34:11.379Z,6.93
2022-08-25T16:37:13.452Z,7.00
2022-08-25T16:40:18.481Z,6.60
2022-08-25T16:43:20.165Z,6.70
2022-08-25T16:46:23.796Z,7.90
2022-08-25T16:49:25.702Z,7.03
2022-08-25T16:52:45.828Z,7.43
2022-08-25T16:55:48.015Z,7.32
2022-08-25T16:58:55.536Z,7.05
2022-08-25T17:01:58.709Z,6.25
2022-08-25T17:05:00.365Z,6.60
2022-08-25T17:08:21.123Z,5.65
2022-08-25T17:11:28.121Z,6.55
2022-08-25T17:14:30.888Z,7.13
2022-08-25T17:17:38.398Z,7.05
2022-08-25T17:20:45.233Z,7.55
2022-08-25T17:23:47.717Z,6.68
2022-08-25T17:26:52.995Z,6.57
2022-08-25T17:29:54.623Z,6.93
2022-08-25T17:32:57.845Z,6.85
2022-08-25T17:36:00.307Z,6.40
2022-08-25T17:39:02.147Z,6.25
2022-08-25T17:42:04.680Z,6.35
2022-08-25T17:45:06.806Z,6.60
2022-08-25T17:48:09.821Z,7.53
2022-08-25T17:51:15.926Z,6.95
2022-08-25T17:54:18.045Z,6.70
2022-08-25T17:57:19.829Z,7.53
2022-08-25T18:00:23.874Z,5.88
2022-08-25T18:03:26.311Z,6.22
2022-08-25T18:06:31.000Z,7.10
2022-08-25T18:09:32.796Z,6.82
2022-08-25T18:12:35.359Z,6.50
2022-08-25T18:15:37.922Z,6.70
2022-08-25T18:18:44.495Z,6.65
2022-08-25T18:21:46.395Z,7.30
2022-08-25T18:24:48.055Z,6.70
2022-08-25T18:27:49.704Z,6.90
2022-08-25T18:30:51.309Z,6.30
2022-08-25T18:33:53.686Z,6.50
2022-08-25T18:36:55.418Z,6.40
2022-08-25T18:40:16.159Z,6.43
2022-08-25T18:43:18.071Z,6.87
2022-08-25T18:46:22.592Z,6.77
2022-08-25T18:49:26.827Z,6.20
2022-08-25T18:52:30.509Z,7.10
2022-08-25T18:55:33.114Z,6.23
2022-08-25T18:58:34.851Z,6.97
2022-08-25T19:01:38.685Z,6.50
2022-08-25T19:04:40.723Z,6.77
2022-08-25T19:07:51.927Z,6.77
2022-08-25T19:10:57.000Z,6.60
2022-08-25T19:13:59.664Z,6.50
2022-08-25T19:17:01.945Z,6.50
2022-08-25T19:20:04.851Z,6.27
2022-08-25T19:23:13.105Z,6.40
2022-08-25T19:26:17.374Z,6.40
2022-08-25T19:29:19.930Z,6.80
2022-08-25T19:32:21.548Z,6.93
2022-08-25T19:35:30.952Z,6.70
2022-08-25T19:38:35.512Z,6.80
2022-08-25T19:41:37.647Z,7.80
2022-08-25T19:44:40.168Z,7.03
2022-08-25T19:47:43.524Z,6.27
2022-08-25T19:50:45.215Z,7.03
2022-08-25T19:53:49.108Z,8.17
2022-08-25T19:56:57.214Z,8.60
2022-08-25T19:59:58.872Z,6.80
2022-08-25T20:03:01.385Z,6.87
2022-08-25T20:06:03.293Z,6.67
2022-08-25T20:09:05.995Z,6.33
2022-08-25T20:12:09.437Z,6.50
2022-08-25T20:15:13.586Z,6.67
2022-08-25T20:18:18.178Z,6.67
2022-08-25T20:21:19.878Z,5.77
2022-08-25T20:24:39.911Z,6.73
2022-08-25T20:27:46.498Z,6.57
2022-08-25T20:30:48.260Z,5.93
2022-08-25T20:33:50.020Z,6.20
2022-08-25T20:36:53.787Z,6.83
2022-08-25T20:39:55.679Z,7.03
2022-08-25T20:43:01.838Z,7.33
2022-08-25T20:46:06.615Z,7.27
2022-08-25T20:49:08.960Z,6.90
2022-08-25T20:52:11.836Z,7.10
2022-08-25T20:55:13.689Z,6.70
2022-08-25T20:58:15.647Z,6.93
2022-08-25T21:01:23.475Z,6.83
2022-08-25T21:04:29.130Z,6.80
2022-08-25T21:07:31.274Z,7.20
2022-08-25T21:10:37.597Z,6.93
2022-08-25T21:13:39.931Z,7.63
2022-08-25T21:16:46.372Z,6.70
2022-08-25T21:22:55.589Z,7.47
2022-08-25T21:25:58.403Z,9.10
2022-08-25T21:29:01.878Z,8.93
2022-08-25T21:32:03.932Z,8.13
2022-08-25T21:35:07.814Z,7.97
2022-08-25T21:38:09.698Z,7.13
2022-08-25T21:41:16.776Z,7.33
2022-08-25T21:44:18.960Z,7.40
2022-08-25T21:47:21.694Z,6.23
2022-08-25T21:50:25.944Z,6.90
2022-08-25T21:53:29.690Z,6.37
2022-08-25T21:56:31.274Z,6.50
2022-08-25T21:59:37.160Z,6.20
2022-08-25T22:02:38.946Z,7.30
2022-08-25T22:05:40.730Z,6.87
2022-08-25T22:08:44.911Z,6.20
2022-08-25T22:11:47.388Z,7.10
2022-08-25T22:14:49.095Z,6.50
2022-08-25T22:17:50.713Z,6.73
2022-08-25T22:20:52.712Z,6.50
2022-08-25T22:23:55.942Z,6.70
2022-08-25T22:26:57.566Z,7.37
2022-08-25T22:30:00.179Z,7.40
2022-08-25T22:33:01.872Z,6.27
2022-08-25T22:36:12.314Z,7.60
2022-08-25T22:39:14.007Z,6.80
2022-08-25T22:42:18.245Z,8.00
2022-08-25T22:45:20.386Z,8.10
2022-08-25T22:48:21.990Z,8.23
2022-08-25T22:51:26.299Z,7.47
2022-08-25T22:54:28.168Z,6.90
2022-08-25T22:57:29.941Z,7.40
2022-08-25T23:00:31.555Z,7.67
2022-08-25T23:03:33.217Z,7.90
2022-08-25T23:06:35.387Z,7.37
2022-08-25T23:09:37.100Z,7.07
2022-08-25T23:12:40.179Z,7.43
2022-08-25T23:15:47.034Z,7.67
2022-08-25T23:18:48.841Z,7.50
2022-08-25T23:22:09.333Z,8.33
2022-08-25T23:25:12.199Z,7.77
2022-08-25T23:28:15.275Z,7.20
2022-08-25T23:31:17.641Z,6.57
2022-08-25T23:34:19.327Z,7.60
2022-08-25T23:37:21.074Z,7.50
2022-08-25T23:40:22.907Z,8.00
2022-08-25T23:43:25.629Z,8.13
2022-08-25T23:46:29.443Z,8.00
2022-08-25T23:49:32.212Z,8.20
2022-08-25T23:52:35.831Z,7.60
2022-08-25T23:55:37.416Z,8.27
2022-08-25T23:58:53.073Z,8.60
